Weather reports worldwide

Advertisment
Gravesend, United Kingdom (3784): temperature & dewpoint: 12.01.2018 13:00:00 - 18.01.2018 13:00:00 (GMT)Gravesend, United Kingdom (3784): wind speed & gusts: 12.01.2018 13:00:00 - 18.01.2018 13:00:00 (GMT)Gravesend, United Kingdom (3784): wind direction: 12.01.2018 13:00:00 - 18.01.2018 13:00:00 (GMT)Gravesend, United Kingdom (3784): reduced air pressure: 12.01.2018 13:00:00 - 18.01.2018 13:00:00 (GMT)
Date & Time tt [°C] td [°C] ff [km/h] ff [kn] fx [km/h] fx [kn] dd ppp [hPa]
18.01.2018 13:00:00 8,0 2,0 28 15 - - W 1001,8
18.01.2018 12:00:00 8,6 2,2 26 14 - - WSW 1002,0
18.01.2018 11:00:00 7,9 1,6 29 16 48 26 W 1002,0
18.01.2018 10:00:00 7,2 1,5 31 17 48 26 W 1001,4
18.01.2018 09:00:00 7,1 1,1 35 19 55 30 W 1000,1
18.01.2018 08:00:00 7,4 0,9 42 23 93 50 W 997,9
18.01.2018 07:00:00 8,8 0,5 59 32 93 50 W 995,5
18.01.2018 06:00:00 10,2 3,3 55 30 98 53 WSW 992,7
18.01.2018 05:00:00 11,2 4,1 61 33 91 49 WSW 990,8
18.01.2018 04:00:00 11,7 6,2 50 27 87 47 WSW 990,4
18.01.2018 03:00:00 11,3 7,2 46 25 68 37 WSW 991,3
18.01.2018 02:00:00 10,3 8,3 35 19 57 31 SW 992,9
18.01.2018 01:00:00 8,2 7,0 35 19 57 31 SSW 995,1
18.01.2018 00:00:00 6,8 5,3 31 17 50 27 S 998,0
17.01.2018 23:00:00 5,6 3,9 16 9 - - S 1001,9
17.01.2018 22:00:00 5,9 2,1 21 11 - - SSW 1004,9
17.01.2018 21:00:00 5,7 1,1 21 11 - - SSW 1006,6
17.01.2018 20:00:00 5,8 1,2 21 11 - - SW 1007,7
17.01.2018 19:00:00 5,5 0,3 21 11 - - SW 1008,4
17.01.2018 18:00:00 5,7 -0,2 16 9 - - SW 1008,7
17.01.2018 17:00:00 6,8 -0,4 35 19 46 25 WSW 1008,8
17.01.2018 16:00:00 6,9 -0,5 26 14 54 29 W 1008,3
17.01.2018 15:00:00 7,3 -1,0 41 22 61 33 W 1007,9
17.01.2018 14:00:00 7,3 0,0 37 20 61 33 W 1007,5
17.01.2018 13:00:00 7,3 0,1 37 20 57 31 W 1007,2
17.01.2018 12:00:00 7,0 -0,3 41 22 63 34 W 1007,0
17.01.2018 11:00:00 6,3 -0,3 29 16 52 28 W 1006,8
17.01.2018 10:00:00 5,3 -0,1 34 18 48 26 WSW 1005,8
17.01.2018 09:00:00 4,5 -0,6 31 17 48 26 WSW 1004,7
17.01.2018 08:00:00 4,2 -0,9 34 18 54 29 W 1003,4
17.01.2018 07:00:00 3,7 -1,0 34 18 48 26 WSW 1001,6
17.01.2018 06:00:00 3,7 -1,3 37 20 55 30 WSW 1000,3
17.01.2018 05:00:00 3,3 -1,3 35 19 52 28 WSW 999,4
17.01.2018 04:00:00 3,3 -1,0 37 20 54 29 WSW 998,5
17.01.2018 03:00:00 3,5 -1,3 35 19 55 30 WSW 997,3
17.01.2018 02:00:00 3,5 -0,9 35 19 48 26 WSW 996,7
17.01.2018 01:00:00 3,7 -0,4 35 19 52 28 WSW 995,7
17.01.2018 00:00:00 4,0 0,2 39 21 52 28 WSW 995,0
16.01.2018 23:00:00 4,0 0,3 34 18 50 27 WSW 994,4
16.01.2018 22:00:00 4,1 1,0 31 17 46 25 WSW 994,2
16.01.2018 21:00:00 3,9 1,0 24 13 - - WSW 994,2
16.01.2018 20:00:00 3,8 1,0 22 12 - - SW 994,2
16.01.2018 19:00:00 3,5 0,9 18 10 - - SW 994,4
16.01.2018 18:00:00 5,5 0,3 24 13 - - SW 994,5
16.01.2018 17:00:00 5,5 0,1 18 10 - - SW 994,8
16.01.2018 16:00:00 6,4 -0,4 34 18 57 31 WSW 995,2
16.01.2018 15:00:00 7,2 -1,4 34 18 57 31 W 995,5
16.01.2018 14:00:00 7,6 -0,6 39 21 - - WSW 995,6
16.01.2018 13:00:00 - - - - - - - -
16.01.2018 12:00:00 - - - - - - - -
16.01.2018 11:00:00 6,7 1,4 31 17 48 26 WSW 996,4
16.01.2018 10:00:00 6,3 0,9 31 17 48 26 WSW 995,9
16.01.2018 09:00:00 6,0 1,6 26 14 - - WSW 995,3
16.01.2018 08:00:00 6,1 1,3 26 14 - - W 994,7
16.01.2018 07:00:00 6,2 2,0 29 16 - - WSW 994,1
16.01.2018 06:00:00 6,5 3,3 26 14 - - WSW 993,3
16.01.2018 05:00:00 6,4 3,9 29 16 - - WSW 992,7
16.01.2018 04:00:00 6,6 3,6 28 15 - - WSW 992,7
16.01.2018 03:00:00 6,9 3,5 28 15 - - WSW 993,0
16.01.2018 02:00:00 7,2 3,8 26 14 - - SW 993,5
16.01.2018 01:00:00 7,2 3,6 28 15 - - WSW 993,6
16.01.2018 00:00:00 7,0 3,9 31 17 - - WSW 993,9
15.01.2018 23:00:00 6,8 3,6 21 11 - - SW 994,3
15.01.2018 22:00:00 7,2 4,0 24 13 - - SW 994,4
15.01.2018 21:00:00 6,8 3,8 26 14 - - WSW 994,2
15.01.2018 20:00:00 7,4 4,7 31 17 - - WSW 993,9
15.01.2018 19:00:00 7,9 3,9 28 15 48 26 W 994,1
15.01.2018 18:00:00 8,5 6,3 34 18 52 28 W 993,2
15.01.2018 17:00:00 9,3 6,5 34 18 46 25 WSW 992,0
15.01.2018 16:00:00 10,2 7,1 29 16 52 28 WSW 991,3
15.01.2018 15:00:00 10,4 8,0 29 16 - - WSW 991,0
15.01.2018 14:00:00 10,5 9,1 22 12 - - WSW 991,0
15.01.2018 13:00:00 10,2 9,2 24 13 - - SSW 991,9
15.01.2018 12:00:00 9,9 8,5 28 15 52 28 SSW 993,7
15.01.2018 11:00:00 8,9 7,9 31 17 50 27 SSW 996,2
15.01.2018 10:00:00 8,7 7,6 31 17 57 31 SSW 997,8
15.01.2018 09:00:00 8,1 6,9 37 20 59 32 SSW 998,9
15.01.2018 08:00:00 7,9 6,5 34 18 61 33 S 1000,5
15.01.2018 07:00:00 8,0 6,2 34 18 50 27 S 1001,9
15.01.2018 06:00:00 7,7 6,3 26 14 48 26 SSW 1003,9
15.01.2018 05:00:00 7,7 5,8 24 13 - - S 1005,7
15.01.2018 04:00:00 7,1 4,3 22 12 - - S 1007,7
15.01.2018 03:00:00 6,9 3,8 22 12 - - SSW 1009,5
15.01.2018 02:00:00 6,4 3,2 16 9 - - SSW 1010,7
15.01.2018 01:00:00 5,4 2,1 13 7 - - S 1011,7
15.01.2018 00:00:00 4,9 1,4 8 4 - - S 1013,4
14.01.2018 23:00:00 5,0 0,9 9 5 - - SSW 1014,5
14.01.2018 22:00:00 5,0 0,9 13 7 - - SSW 1015,5
14.01.2018 21:00:00 5,4 1,4 13 7 - - SW 1016,2
14.01.2018 20:00:00 5,4 1,9 11 6 - - SSW 1016,6
14.01.2018 19:00:00 4,9 2,4 8 4 - - S 1016,6
14.01.2018 18:00:00 4,9 2,3 4 2 - - SE 1016,6
14.01.2018 17:00:00 5,5 2,4 8 4 - - E 1016,7
14.01.2018 16:00:00 5,9 1,7 9 5 - - E 1016,7
14.01.2018 15:00:00 6,7 1,8 4 2 - - NE 1017,3
14.01.2018 14:00:00 7,8 2,3 8 4 - - E 1016,9
14.01.2018 13:00:00 6,6 2,4 4 2 - - ENE 1017,8
14.01.2018 12:00:00 6,5 2,6 4 2 - - ENE 1018,4
14.01.2018 11:00:00 5,7 2,1 2 1 - - NE 1018,8
14.01.2018 10:00:00 5,5 2,0 5 3 - - N 1018,9
14.01.2018 09:00:00 5,2 1,5 8 4 - - ENE 1018,5
14.01.2018 08:00:00 4,9 1,7 9 5 - - NE 1018,3
14.01.2018 07:00:00 4,5 1,5 4 2 - - NE 1018,4
14.01.2018 06:00:00 4,5 1,8 5 3 - - NNE 1018,6
14.01.2018 05:00:00 4,2 1,7 8 4 - - NE 1018,6
14.01.2018 04:00:00 4,3 1,5 9 5 - - ENE 1018,9
14.01.2018 03:00:00 4,3 1,1 8 4 - - E 1019,1
14.01.2018 02:00:00 4,2 1,3 13 7 - - ENE 1019,0
14.01.2018 01:00:00 4,3 1,2 11 6 - - ENE 1019,1
14.01.2018 00:00:00 4,4 1,0 13 7 - - E 1019,2
13.01.2018 23:00:00 4,4 1,1 13 7 - - E 1019,5
13.01.2018 22:00:00 4,5 1,3 15 8 - - E 1019,5
13.01.2018 21:00:00 4,6 1,8 13 7 - - ESE 1019,6
13.01.2018 20:00:00 4,9 2,0 16 9 - - E 1019,5
13.01.2018 19:00:00 5,2 2,0 16 9 - - E 1019,4
13.01.2018 18:00:00 5,6 2,9 11 6 - - E 1019,4
13.01.2018 17:00:00 5,7 2,6 11 6 - - ESE 1019,3
13.01.2018 16:00:00 6,0 2,8 11 6 - - ESE 1019,3
13.01.2018 15:00:00 6,3 3,1 15 8 - - E 1019,2
13.01.2018 14:00:00 6,7 3,6 15 8 - - ESE 1019,3
13.01.2018 13:00:00 6,1 3,6 15 8 - - E 1020,0
13.01.2018 12:00:00 6,5 3,9 11 6 - - SE 1020,7
13.01.2018 11:00:00 6,6 3,9 16 9 - - SE 1021,0
13.01.2018 10:00:00 6,1 4,1 13 7 - - E 1020,8
13.01.2018 09:00:00 5,4 3,8 13 7 - - E 1020,6
13.01.2018 08:00:00 5,2 3,4 11 6 - - E 1020,8
13.01.2018 07:00:00 5,3 3,2 11 6 - - E 1020,7
13.01.2018 06:00:00 5,2 3,1 11 6 - - E 1020,9
13.01.2018 05:00:00 5,2 3,0 15 8 - - ESE 1021,2
13.01.2018 04:00:00 5,3 3,2 11 6 - - ESE 1021,9
13.01.2018 03:00:00 5,3 3,1 9 5 - - SE 1022,6
13.01.2018 02:00:00 5,4 3,7 11 6 - - SSE 1022,8
13.01.2018 01:00:00 5,3 4,3 8 4 - - ESE 1023,1
13.01.2018 00:00:00 4,8 4,5 9 5 - - E 1023,6
12.01.2018 23:00:00 3,1 2,7 8 4 - - SE 1024,2
12.01.2018 22:00:00 1,8 0,9 4 2 - - ESE 1024,5
12.01.2018 21:00:00 2,8 1,1 2 1 - - SE 1024,7
12.01.2018 20:00:00 4,4 2,8 8 4 - - SSE 1024,8
12.01.2018 19:00:00 5,7 4,2 8 4 - - ESE 1025,0
12.01.2018 18:00:00 5,8 3,7 8 4 - - ESE 1025,0
12.01.2018 17:00:00 6,9 4,8 9 5 - - E 1025,0
12.01.2018 16:00:00 7,2 5,3 9 5 - - ESE 1025,1
12.01.2018 15:00:00 7,3 5,7 5 3 - - ENE 1025,3
12.01.2018 14:00:00 7,5 5,2 5 3 - - E 1025,6
12.01.2018 13:00:00 7,5 5,5 2 1 - - SSE 1026,0

tt = temperature
td = dewpoint
ff = wind speed
fx = gusts
dd = wind direction
ppp = reduced air pressure

Next stations